createdAt,value
2022-08-09T00:00:34.671Z,0.00
2022-08-09T00:01:52.615Z,0.00
2022-08-09T00:02:35.827Z,0.00
2022-08-09T00:04:05.773Z,0.00
2022-08-09T00:04:35.711Z,0.00
2022-08-09T00:06:17.819Z,0.00
2022-08-09T00:06:35.582Z,0.00
2022-08-09T00:07:44.683Z,0.00
2022-08-09T00:08:35.565Z,0.00
2022-08-09T00:09:34.542Z,0.00
2022-08-09T00:10:34.552Z,0.00
2022-08-09T00:12:04.085Z,0.00
2022-08-09T00:12:35.946Z,0.00
2022-08-09T00:13:38.441Z,0.00
2022-08-09T00:14:38.245Z,0.00
2022-08-09T00:15:57.552Z,0.00
2022-08-09T00:16:36.811Z,0.00
2022-08-09T00:18:04.402Z,0.00
2022-08-09T00:18:36.022Z,0.00
2022-08-09T00:19:34.784Z,0.00
2022-08-09T00:20:34.455Z,0.00
2022-08-09T00:21:34.416Z,0.00
2022-08-09T00:22:35.332Z,0.00
2022-08-09T00:23:58.101Z,0.00
2022-08-09T00:24:35.379Z,0.00
2022-08-09T00:25:34.396Z,0.00
2022-08-09T00:26:34.367Z,0.00
2022-08-09T00:27:36.198Z,0.00
2022-08-09T00:28:34.458Z,0.00
2022-08-09T00:30:09.962Z,0.00
2022-08-09T00:30:35.346Z,0.00
2022-08-09T00:31:58.723Z,0.00
2022-08-09T00:32:35.310Z,0.00
2022-08-09T00:33:50.568Z,0.00
2022-08-09T00:34:35.292Z,0.00
2022-08-09T00:35:42.671Z,0.00
2022-08-09T00:36:35.263Z,0.00
2022-08-09T00:37:34.239Z,0.00
2022-08-09T00:38:34.230Z,0.00
2022-08-09T00:40:13.195Z,0.00
2022-08-09T00:40:35.269Z,0.00
2022-08-09T00:44:11.267Z,0.00
2022-08-09T00:44:11.823Z,0.00
2022-08-09T00:44:15.996Z,0.00
2022-08-09T00:44:37.479Z,0.00
2022-08-09T00:45:34.703Z,0.00
2022-08-09T00:46:56.183Z,0.00
2022-08-09T00:47:39.634Z,0.00
2022-08-09T00:48:34.124Z,0.00
2022-08-09T00:49:34.112Z,0.00
2022-08-09T00:50:34.104Z,0.00
2022-08-09T00:51:54.532Z,0.00
2022-08-09T00:52:35.434Z,0.00
2022-08-09T00:53:34.074Z,0.00
2022-08-09T00:54:35.898Z,0.00
2022-08-09T00:56:05.368Z,0.00
2022-08-09T00:56:35.076Z,0.00
2022-08-09T00:57:35.848Z,0.00
2022-08-09T00:58:34.017Z,0.00
2022-08-09T00:59:41.569Z,0.00
2022-08-09T01:00:35.104Z,0.00
2022-08-09T01:01:44.619Z,0.00
2022-08-09T01:02:34.978Z,0.00
2022-08-09T01:03:36.419Z,0.00
2022-08-09T01:04:34.950Z,0.00
2022-08-09T01:05:51.570Z,0.00
2022-08-09T01:06:35.392Z,0.00
2022-08-09T01:07:37.825Z,0.00
2022-08-09T01:08:34.907Z,0.00
2022-08-09T01:09:36.521Z,0.00
2022-08-09T01:10:33.889Z,0.00
2022-08-09T01:11:33.876Z,0.00
2022-08-09T01:12:34.094Z,0.00
2022-08-09T01:13:42.087Z,0.00
2022-08-09T01:14:34.849Z,0.00
2022-08-09T01:15:33.819Z,0.00
2022-08-09T01:16:35.243Z,0.00
2022-08-09T01:17:34.178Z,0.00
2022-08-09T01:18:33.792Z,0.00
2022-08-09T01:19:42.769Z,0.00
2022-08-09T01:20:34.771Z,0.00
2022-08-09T01:21:41.165Z,0.00
2022-08-09T01:22:34.867Z,0.00
2022-08-09T01:24:02.940Z,0.00
2022-08-09T01:24:34.721Z,0.00
2022-08-09T01:25:41.793Z,0.00
2022-08-09T01:26:34.722Z,0.00
2022-08-09T01:27:33.696Z,0.00
2022-08-09T01:28:33.693Z,0.00
2022-08-09T01:29:41.221Z,0.00
2022-08-09T01:30:51.369Z,0.00
2022-08-09T01:32:29.448Z,0.00
2022-08-09T01:32:34.889Z,0.00
2022-08-09T01:33:33.615Z,0.00
2022-08-09T01:34:33.624Z,0.00
2022-08-09T01:35:38.398Z,0.00
2022-08-09T01:36:34.595Z,0.00
2022-08-09T01:38:05.840Z,0.00
2022-08-09T01:38:34.605Z,0.00
2022-08-09T01:39:33.612Z,0.00
2022-08-09T01:40:33.556Z,0.00
2022-08-09T01:41:33.547Z,0.00
2022-08-09T01:42:33.718Z,0.00
2022-08-09T01:43:42.105Z,0.00
2022-08-09T01:44:34.528Z,0.00
2022-08-09T01:45:33.492Z,0.00
2022-08-09T01:46:33.490Z,0.00
2022-08-09T01:47:33.470Z,0.00
2022-08-09T01:48:34.470Z,0.00
2022-08-09T01:49:38.916Z,0.00
2022-08-09T01:50:37.140Z,0.00
2022-08-09T01:51:34.438Z,0.00
2022-08-09T01:52:33.562Z,0.00
2022-08-09T01:53:41.308Z,0.00
2022-08-09T01:54:34.470Z,0.00
2022-08-09T01:55:33.380Z,0.00
2022-08-09T01:56:33.392Z,0.00
2022-08-09T01:57:40.158Z,0.00
2022-08-09T01:58:34.343Z,0.00
2022-08-09T01:59:33.341Z,0.00
2022-08-09T02:00:35.790Z,0.00
2022-08-09T02:02:00.293Z,0.00
2022-08-09T02:02:34.564Z,0.00
2022-08-09T02:03:33.292Z,0.00
2022-08-09T02:04:33.283Z,0.00
2022-08-09T02:05:35.517Z,0.00
2022-08-09T02:06:34.262Z,0.00
2022-08-09T02:08:36.109Z,0.00
2022-08-09T02:08:40.415Z,0.00
2022-08-09T02:09:42.306Z,0.00
2022-08-09T02:10:34.232Z,0.00
2022-08-09T02:11:42.212Z,0.00
2022-08-09T02:12:34.332Z,0.00
2022-08-09T02:13:40.243Z,0.00
2022-08-09T02:14:34.163Z,0.00
2022-08-09T02:15:48.800Z,0.00
2022-08-09T02:16:53.290Z,0.00
2022-08-09T02:17:59.870Z,0.00
2022-08-09T02:18:34.126Z,0.00
2022-08-09T02:19:38.704Z,0.00
2022-08-09T02:20:34.373Z,0.00
2022-08-09T02:21:34.247Z,0.00
2022-08-09T02:22:35.821Z,0.00
2022-08-09T02:23:40.025Z,0.00
2022-08-09T02:24:34.046Z,0.00
2022-08-09T02:25:33.049Z,0.00
2022-08-09T02:26:34.050Z,0.00
2022-08-09T02:27:57.622Z,0.00
2022-08-09T02:28:34.008Z,0.00
2022-08-09T02:29:33.009Z,0.00
2022-08-09T02:30:32.988Z,0.00
2022-08-09T02:31:35.591Z,0.00
2022-08-09T02:32:33.263Z,0.00
2022-08-09T02:33:38.208Z,0.00
2022-08-09T02:34:40.852Z,0.00
2022-08-09T02:36:03.897Z,0.00
2022-08-09T02:36:33.958Z,0.00
2022-08-09T02:37:33.109Z,0.00
2022-08-09T02:38:34.943Z,0.00
2022-08-09T02:39:33.425Z,0.00
2022-08-09T02:40:32.913Z,0.00
2022-08-09T02:41:32.881Z,0.00
2022-08-09T02:42:33.072Z,0.00
2022-08-09T02:43:53.923Z,0.00
2022-08-09T02:44:33.832Z,0.00
2022-08-09T02:45:32.925Z,0.00
2022-08-09T02:46:32.865Z,0.00
2022-08-09T02:47:33.683Z,0.00
2022-08-09T02:48:33.792Z,0.00
2022-08-09T02:49:38.677Z,0.00
2022-08-09T02:50:33.773Z,0.00
2022-08-09T02:51:32.997Z,0.00
2022-08-09T02:52:32.902Z,0.00
2022-08-09T02:53:34.446Z,0.00
2022-08-09T02:54:32.719Z,0.00
2022-08-09T02:55:46.658Z,0.00
2022-08-09T02:56:33.705Z,0.00
2022-08-09T02:57:40.555Z,0.00
2022-08-09T02:58:36.757Z,0.00
2022-08-09T02:59:36.477Z,0.00
2022-08-09T03:00:32.734Z,0.00
2022-08-09T03:01:43.226Z,0.00
2022-08-09T03:02:33.857Z,0.00
2022-08-09T03:04:12.928Z,0.00
2022-08-09T03:04:33.616Z,0.00
2022-08-09T03:05:34.130Z,0.00
2022-08-09T03:06:32.877Z,0.00
2022-08-09T03:07:32.578Z,0.00
2022-08-09T03:08:32.568Z,0.00
2022-08-09T03:09:33.602Z,0.00
2022-08-09T03:10:32.549Z,0.00
2022-08-09T03:12:05.695Z,0.00
2022-08-09T03:12:33.758Z,0.00
2022-08-09T03:13:43.748Z,0.00
2022-08-09T03:14:33.500Z,0.00
2022-08-09T03:16:04.151Z,0.00
2022-08-09T03:16:33.490Z,0.00
2022-08-09T03:17:32.471Z,0.00
2022-08-09T03:18:32.460Z,0.00
2022-08-09T03:19:58.126Z,0.00
2022-08-09T03:20:33.471Z,0.00
2022-08-09T03:21:36.586Z,0.00
2022-08-09T03:22:33.584Z,0.00
2022-08-09T03:23:33.411Z,0.00
2022-08-09T03:24:42.564Z,0.00
2022-08-09T03:25:56.944Z,0.00
2022-08-09T03:26:33.383Z,0.00
2022-08-09T03:27:44.692Z,0.00
2022-08-09T03:28:33.343Z,0.00
2022-08-09T03:29:35.701Z,0.00
2022-08-09T03:30:36.688Z,0.00
2022-08-09T03:31:32.335Z,4.00
2022-08-09T03:32:33.424Z,4.00
2022-08-09T03:33:54.104Z,0.00
2022-08-09T03:34:33.275Z,4.00
2022-08-09T03:36:11.087Z,4.00
2022-08-09T03:36:33.254Z,4.00
2022-08-09T03:37:57.160Z,4.00
2022-08-09T03:38:33.235Z,4.00
2022-08-09T03:39:37.834Z,8.00
2022-08-09T03:40:33.215Z,8.00
2022-08-09T03:41:46.026Z,8.00
2022-08-09T03:42:33.343Z,12.00
2022-08-09T03:43:33.121Z,8.00
2022-08-09T03:44:32.167Z,12.00
2022-08-09T03:46:02.942Z,16.00
2022-08-09T03:46:33.156Z,16.00
2022-08-09T03:47:32.170Z,20.00
2022-08-09T03:48:33.124Z,24.00
2022-08-09T03:49:35.649Z,32.00
2022-08-09T03:50:32.135Z,32.00
2022-08-09T03:51:43.808Z,44.00
2022-08-09T03:52:33.397Z,44.00
2022-08-09T03:53:36.923Z,56.00
2022-08-09T03:54:34.648Z,64.00
2022-08-09T03:55:36.103Z,72.00
2022-08-09T03:56:33.040Z,80.00
2022-08-09T03:57:32.041Z,92.00
2022-08-09T03:58:32.026Z,108.00
2022-08-09T03:59:43.001Z,120.00
2022-08-09T04:00:33.032Z,140.00
2022-08-09T04:01:31.982Z,152.00
2022-08-09T04:02:32.622Z,172.00
2022-08-09T04:03:46.095Z,192.00
2022-08-09T04:04:36.238Z,216.00
2022-08-09T04:05:32.941Z,240.00
2022-08-09T04:06:32.932Z,264.00
2022-08-09T04:07:47.454Z,292.00
2022-08-09T04:08:33.157Z,320.00
2022-08-09T04:09:47.693Z,348.00
2022-08-09T04:10:32.924Z,380.00
2022-08-09T04:11:31.874Z,412.00
2022-08-09T04:12:31.875Z,448.00
2022-08-09T04:14:37.084Z,484.00
2022-08-09T04:14:53.709Z,524.00
2022-08-09T04:16:18.007Z,564.00
2022-08-09T04:16:32.825Z,604.00
2022-08-09T04:17:31.857Z,648.00
2022-08-09T04:18:31.796Z,692.00
2022-08-09T04:19:43.250Z,740.00
2022-08-09T04:20:32.824Z,788.00
2022-08-09T04:21:31.766Z,836.00
2022-08-09T04:22:33.065Z,884.00
2022-08-09T04:23:31.737Z,932.00
2022-08-09T04:24:31.728Z,988.00
2022-08-09T04:25:31.723Z,1040.00
2022-08-09T04:26:35.220Z,1096.00
2022-08-09T04:27:32.909Z,1152.00
2022-08-09T04:28:36.289Z,1208.00
2022-08-09T04:29:31.682Z,1264.00
2022-08-09T04:30:31.682Z,1328.00
2022-08-09T04:31:37.705Z,1384.00
2022-08-09T04:32:34.015Z,1444.00
2022-08-09T04:33:31.647Z,1504.00
2022-08-09T04:34:31.958Z,1568.00
2022-08-09T04:35:32.807Z,1624.00
2022-08-09T04:36:31.600Z,1688.00
2022-08-09T04:37:45.049Z,1748.00
2022-08-09T04:38:32.598Z,1808.00
2022-08-09T04:39:31.610Z,1868.00
2022-08-09T04:40:36.553Z,1932.00
2022-08-09T04:41:33.796Z,1988.00
2022-08-09T04:42:33.997Z,2052.00
2022-08-09T04:43:35.771Z,2112.00
2022-08-09T04:44:31.520Z,2172.00
2022-08-09T04:45:35.977Z,2236.00
2022-08-09T04:46:56.935Z,2296.00
2022-08-09T04:47:44.960Z,2356.00
2022-08-09T04:48:33.411Z,2416.00
2022-08-09T04:49:52.347Z,2476.00
2022-08-09T04:50:37.719Z,2536.00
2022-08-09T04:51:33.425Z,2596.00
2022-08-09T04:52:31.434Z,2656.00
2022-08-09T04:53:31.624Z,2712.00
2022-08-09T04:54:31.408Z,2772.00
2022-08-09T04:55:38.984Z,2828.00
2022-08-09T04:56:32.376Z,2884.00
2022-08-09T04:57:53.718Z,2940.00
2022-08-09T04:58:32.965Z,3000.00
2022-08-09T04:59:31.345Z,3056.00
2022-08-09T05:00:31.954Z,3108.00
2022-08-09T05:01:31.326Z,3164.00
2022-08-09T05:02:31.612Z,3220.00
2022-08-09T05:03:43.227Z,3272.00
2022-08-09T05:04:32.382Z,3324.00
2022-08-09T05:05:31.925Z,3380.00
2022-08-09T05:06:35.778Z,3432.00
2022-08-09T05:07:32.035Z,3488.00
2022-08-09T05:08:31.280Z,3540.00
2022-08-09T05:09:42.015Z,3592.00
2022-08-09T05:10:32.230Z,3644.00
2022-08-09T05:11:35.412Z,3696.00
2022-08-09T05:12:32.755Z,3752.00
2022-08-09T05:13:32.939Z,3800.00
2022-08-09T05:14:31.180Z,3844.00
2022-08-09T05:15:38.437Z,3892.00
2022-08-09T05:16:32.207Z,3940.00
2022-08-09T05:18:39.967Z,4092.00
2022-08-09T05:18:42.043Z,4032.00
2022-08-09T05:19:46.251Z,4088.00
2022-08-09T05:20:32.111Z,4124.00
2022-08-09T05:21:36.629Z,4176.00
2022-08-09T05:22:35.877Z,4220.00
2022-08-09T05:24:00.508Z,4272.00
2022-08-09T05:24:32.062Z,4316.00
2022-08-09T05:25:32.605Z,4364.00
2022-08-09T05:26:36.862Z,4408.00
2022-08-09T05:27:32.046Z,4460.00
2022-08-09T05:28:31.023Z,4504.00
2022-08-09T05:29:31.586Z,4548.00
2022-08-09T05:30:31.331Z,4592.00
2022-08-09T05:31:44.125Z,4636.00
2022-08-09T05:32:32.199Z,4680.00
2022-08-09T05:33:32.814Z,4724.00
2022-08-09T05:34:32.297Z,4768.00
2022-08-09T05:35:31.968Z,4816.00
2022-08-09T05:36:31.926Z,4864.00
2022-08-09T05:37:30.935Z,4912.00
2022-08-09T05:38:31.914Z,4968.00
2022-08-09T05:39:36.012Z,5016.00
2022-08-09T05:40:31.885Z,5076.00
2022-08-09T05:41:30.876Z,5128.00
2022-08-09T05:42:30.876Z,5176.00
2022-08-09T05:43:32.003Z,5224.00
2022-08-09T05:44:32.725Z,5280.00
2022-08-09T05:45:52.757Z,5436.00
2022-08-09T05:46:31.828Z,6200.00
2022-08-09T05:47:33.182Z,6488.00
2022-08-09T05:48:32.985Z,6384.00
2022-08-09T05:50:23.425Z,6380.00
2022-08-09T05:50:39.937Z,6232.00
2022-08-09T05:51:43.098Z,7424.00
2022-08-09T05:52:32.022Z,9632.00
2022-08-09T05:53:33.203Z,11044.00
2022-08-09T05:54:30.742Z,11988.00
2022-08-09T05:55:31.384Z,12448.00
2022-08-09T05:56:30.710Z,12520.00
2022-08-09T05:57:55.269Z,13464.00
2022-08-09T05:58:31.684Z,13852.00
2022-08-09T05:59:30.691Z,15392.00
2022-08-09T06:00:30.750Z,16480.00
2022-08-09T06:01:33.535Z,16768.00
2022-08-09T06:02:30.999Z,19712.00
2022-08-09T06:03:44.116Z,24128.00
2022-08-09T06:04:34.808Z,25792.00
2022-08-09T06:05:56.990Z,17792.00
2022-08-09T06:06:31.602Z,15552.00
2022-08-09T06:07:30.605Z,16448.00
2022-08-09T06:08:30.573Z,16288.00
2022-08-09T06:09:53.886Z,16416.00
2022-08-09T06:10:31.564Z,17216.00
2022-08-09T06:11:40.599Z,17408.00
2022-08-09T06:12:31.544Z,18176.00
2022-08-09T06:13:33.656Z,18816.00
2022-08-09T06:14:30.529Z,19424.00
2022-08-09T06:15:30.517Z,20096.00
2022-08-09T06:16:30.496Z,20736.00
2022-08-09T06:17:40.329Z,21536.00
2022-08-09T06:18:31.480Z,21504.00
2022-08-09T06:19:30.487Z,17440.00
2022-08-09T06:20:30.457Z,22272.00
2022-08-09T06:21:30.437Z,22272.00
2022-08-09T06:22:30.457Z,23136.00
2022-08-09T06:23:55.731Z,24192.00
2022-08-09T06:24:31.409Z,25120.00
2022-08-09T06:25:30.400Z,25664.00
2022-08-09T06:26:30.388Z,26592.00
2022-08-09T06:27:42.175Z,26848.00
2022-08-09T06:28:31.985Z,25856.00
2022-08-09T06:29:30.361Z,27456.00
2022-08-09T06:30:30.341Z,28576.00
2022-08-09T06:31:31.511Z,28128.00
2022-08-09T06:33:00.647Z,27680.00
2022-08-09T06:33:40.908Z,27680.00
2022-08-09T06:34:31.301Z,28032.00
2022-08-09T06:35:56.414Z,27808.00
2022-08-09T06:36:31.274Z,26944.00
2022-08-09T06:37:30.297Z,27552.00
2022-08-09T06:38:32.118Z,27936.00
2022-08-09T06:39:48.300Z,28320.00
2022-08-09T06:40:31.254Z,30112.00
2022-08-09T06:42:07.626Z,31552.00
2022-08-09T06:42:33.760Z,32992.00
2022-08-09T06:43:34.346Z,34368.00
2022-08-09T06:44:30.189Z,35104.00
2022-08-09T06:46:05.124Z,36000.00
2022-08-09T06:46:39.704Z,38304.00
2022-08-09T06:47:39.936Z,39520.00
2022-08-09T06:48:31.380Z,40192.00
2022-08-09T06:50:11.795Z,42176.00
2022-08-09T06:50:31.901Z,43584.00
2022-08-09T06:51:30.119Z,42240.00
2022-08-09T06:52:30.261Z,42304.00
2022-08-09T06:53:33.169Z,43136.00
2022-08-09T06:54:31.073Z,42816.00
2022-08-09T06:55:30.073Z,44224.00
2022-08-09T06:56:31.017Z,45184.00
2022-08-09T06:58:01.771Z,45824.00
2022-08-09T07:00:46.630Z,45248.00
2022-08-09T07:00:48.976Z,45888.00
2022-08-09T07:00:49.821Z,47136.00
2022-08-09T07:01:53.755Z,46304.00
2022-08-09T07:02:32.098Z,48672.00
2022-08-09T07:03:29.977Z,47040.00
2022-08-09T07:04:29.976Z,45152.00
2022-08-09T07:05:58.256Z,46880.00
2022-08-09T07:06:30.991Z,48576.00
2022-08-09T07:08:00.050Z,48768.00
2022-08-09T07:08:30.931Z,52864.00
2022-08-09T07:09:55.343Z,53600.00
2022-08-09T07:10:32.233Z,52128.00
2022-08-09T07:11:34.188Z,53280.00
2022-08-09T07:12:38.539Z,52864.00
2022-08-09T07:13:30.871Z,52384.00
2022-08-09T07:14:30.876Z,51232.00
2022-08-09T07:16:39.414Z,50048.00
2022-08-09T07:16:41.533Z,50144.00
2022-08-09T07:17:39.679Z,51040.00
2022-08-09T07:18:31.322Z,49536.00
2022-08-09T07:19:29.814Z,51744.00
2022-08-09T07:20:29.824Z,52352.00
2022-08-09T07:21:30.910Z,53120.00
2022-08-09T07:22:35.058Z,55680.00
2022-08-09T07:23:30.775Z,58560.00
2022-08-09T07:24:32.232Z,58432.00
2022-08-09T07:25:29.746Z,58688.00
2022-08-09T07:26:30.757Z,59712.00
2022-08-09T07:27:33.980Z,60800.00
2022-08-09T07:28:29.725Z,61088.00
2022-08-09T07:29:37.735Z,59328.00
2022-08-09T07:30:32.942Z,61856.00
2022-08-09T07:31:29.679Z,62848.00
2022-08-09T07:32:31.883Z,61344.00
2022-08-09T07:33:52.292Z,63840.00
2022-08-09T07:34:30.661Z,64960.00
2022-08-09T07:35:29.679Z,65696.00
2022-08-09T07:36:30.632Z,64096.00
2022-08-09T07:37:29.633Z,63296.00
2022-08-09T07:38:31.055Z,64768.00
2022-08-09T07:39:40.245Z,63872.00
2022-08-09T07:40:46.367Z,64832.00
2022-08-09T07:41:33.161Z,65824.00
2022-08-09T07:42:32.912Z,64896.00
2022-08-09T07:43:29.557Z,63168.00
2022-08-09T07:44:50.908Z,65792.00
2022-08-09T07:45:38.263Z,68416.00
2022-08-09T07:46:30.527Z,66496.00
2022-08-09T07:47:29.605Z,70272.00
2022-08-09T07:48:31.707Z,74464.00
2022-08-09T07:49:29.497Z,74496.00
2022-08-09T07:50:32.949Z,73344.00
2022-08-09T07:52:04.980Z,75072.00
2022-08-09T07:52:30.660Z,76256.00
2022-08-09T07:53:36.434Z,72928.00
2022-08-09T07:54:31.059Z,77856.00
2022-08-09T07:55:29.432Z,79872.00
2022-08-09T07:56:30.910Z,78176.00
2022-08-09T07:57:35.625Z,79456.00
2022-08-09T07:58:30.414Z,79456.00
2022-08-09T07:59:45.784Z,76352.00
2022-08-09T08:00:35.858Z,77248.00
2022-08-09T08:01:32.960Z,75296.00
2022-08-09T08:02:29.521Z,78336.00
2022-08-09T08:03:29.385Z,75808.00
2022-08-09T08:04:32.207Z,78208.00
2022-08-09T08:05:29.328Z,80864.00
2022-08-09T08:06:31.966Z,81344.00
2022-08-09T08:08:44.321Z,82464.00
2022-08-09T08:09:00.349Z,80928.00
2022-08-09T08:09:38.629Z,82112.00
2022-08-09T08:10:30.279Z,80800.00
2022-08-09T08:12:25.026Z,82720.00
2022-08-09T08:12:31.082Z,81984.00
2022-08-09T08:13:29.261Z,79552.00
2022-08-09T08:14:30.245Z,79872.00
2022-08-09T08:15:29.222Z,81632.00
2022-08-09T08:16:32.255Z,80928.00
2022-08-09T08:17:54.038Z,81824.00
2022-08-09T08:18:30.203Z,82848.00
2022-08-09T08:19:31.224Z,86720.00
2022-08-09T08:20:32.834Z,84608.00
2022-08-09T08:21:29.165Z,86496.00
2022-08-09T08:22:29.182Z,85120.00
2022-08-09T08:23:29.156Z,85440.00
2022-08-09T08:24:35.248Z,84128.00
2022-08-09T08:25:44.586Z,84480.00
2022-08-09T08:26:41.992Z,81568.00
2022-08-09T08:27:30.697Z,87136.00
2022-08-09T08:28:32.122Z,89056.00
2022-08-09T08:29:39.293Z,91200.00
2022-08-09T08:30:30.078Z,90432.00
2022-08-09T08:32:02.989Z,88384.00
2022-08-09T08:32:30.085Z,92480.00
2022-08-09T08:33:49.607Z,88128.00
2022-08-09T08:34:30.043Z,88608.00
2022-08-09T08:35:53.035Z,85952.00
2022-08-09T08:36:30.759Z,85952.00
2022-08-09T08:37:41.535Z,84416.00
2022-08-09T08:38:30.005Z,87136.00
2022-08-09T08:39:29.053Z,90528.00
2022-08-09T08:40:30.437Z,91392.00
2022-08-09T08:41:50.838Z,93280.00
2022-08-09T08:42:32.051Z,96160.00
2022-08-09T08:43:28.965Z,94848.00
2022-08-09T08:44:29.678Z,93952.00
2022-08-09T08:45:37.377Z,101696.00
2022-08-09T08:46:33.654Z,95872.00
2022-08-09T08:47:29.916Z,96992.00
2022-08-09T08:48:28.996Z,96768.00
2022-08-09T08:49:29.686Z,95328.00
2022-08-09T08:50:29.899Z,94880.00
2022-08-09T08:51:41.687Z,97888.00
2022-08-09T08:52:57.907Z,94496.00
2022-08-09T08:53:37.085Z,97952.00
2022-08-09T08:54:30.317Z,98240.00
2022-08-09T08:55:28.835Z,96256.00
2022-08-09T08:56:28.832Z,96640.00
2022-08-09T08:57:28.833Z,98560.00
2022-08-09T08:58:29.858Z,98496.00
2022-08-09T08:59:46.815Z,98464.00
2022-08-09T09:00:30.550Z,102944.00
2022-08-09T09:01:44.888Z,102016.00
2022-08-09T09:02:31.353Z,107776.00
2022-08-09T09:03:33.059Z,106560.00
2022-08-09T09:04:28.760Z,100544.00
2022-08-09T09:05:59.089Z,95776.00
2022-08-09T09:06:29.722Z,95584.00
2022-08-09T09:07:28.752Z,96736.00
2022-08-09T09:08:31.848Z,103776.00
2022-08-09T09:09:58.614Z,103872.00
2022-08-09T09:10:29.690Z,107840.00
2022-08-09T09:11:28.690Z,106112.00
2022-08-09T09:12:29.193Z,104672.00
2022-08-09T09:13:34.688Z,106848.00
2022-08-09T09:14:29.642Z,107328.00
2022-08-09T09:15:28.991Z,111616.00
2022-08-09T09:16:29.899Z,110016.00
2022-08-09T09:17:48.295Z,107360.00
2022-08-09T09:18:29.894Z,106144.00
2022-08-09T09:19:40.852Z,104576.00
2022-08-09T09:20:29.585Z,110144.00
2022-08-09T09:21:28.585Z,109280.00
2022-08-09T09:22:29.617Z,114304.00
2022-08-09T09:23:38.040Z,106560.00
2022-08-09T09:24:29.546Z,108224.00
2022-08-09T09:26:01.287Z,102880.00
2022-08-09T09:26:29.557Z,106784.00
2022-08-09T09:28:06.931Z,107584.00
2022-08-09T09:29:02.567Z,109376.00
2022-08-09T09:29:51.594Z,110400.00
2022-08-09T09:30:47.416Z,104320.00
2022-08-09T09:32:05.989Z,108864.00
2022-08-09T09:32:35.107Z,113440.00
2022-08-09T09:33:29.481Z,107456.00
2022-08-09T09:34:29.458Z,110592.00
2022-08-09T09:35:28.452Z,101568.00
2022-08-09T09:36:28.440Z,97856.00
2022-08-09T09:37:32.255Z,90496.00
2022-08-09T09:38:37.024Z,96192.00
2022-08-09T09:39:54.693Z,96384.00
2022-08-09T09:40:29.482Z,105536.00
2022-08-09T09:41:33.198Z,101952.00
2022-08-09T09:42:29.376Z,108288.00
2022-08-09T09:43:28.376Z,106624.00
2022-08-09T09:44:31.657Z,101728.00
2022-08-09T09:45:29.093Z,112736.00
2022-08-09T09:46:51.788Z,111040.00
2022-08-09T09:47:29.349Z,104768.00
2022-08-09T09:48:28.318Z,112992.00
2022-08-09T09:49:49.831Z,108576.00
2022-08-09T09:50:29.319Z,110016.00
2022-08-09T09:51:38.498Z,118976.00
2022-08-09T09:52:35.759Z,114304.00
2022-08-09T09:53:57.215Z,118304.00
2022-08-09T09:54:29.272Z,119008.00
2022-08-09T09:55:32.963Z,118912.00
2022-08-09T09:56:31.534Z,118304.00
2022-08-09T09:58:00.926Z,117920.00
2022-08-09T09:58:29.235Z,113920.00
2022-08-09T09:59:29.369Z,111808.00
2022-08-09T10:00:29.205Z,112608.00
2022-08-09T10:01:31.036Z,123424.00
2022-08-09T10:02:29.208Z,119520.00
2022-08-09T10:03:28.191Z,119616.00
2022-08-09T10:04:30.792Z,119392.00
2022-08-09T10:06:03.279Z,115840.00
2022-08-09T10:06:32.144Z,108800.00
2022-08-09T10:07:28.149Z,120480.00
2022-08-09T10:08:28.597Z,119008.00
2022-08-09T10:09:28.168Z,123776.00
2022-08-09T10:10:28.129Z,123392.00
2022-08-09T10:12:00.613Z,123104.00
2022-08-09T10:12:29.640Z,126656.00
2022-08-09T10:13:43.484Z,122176.00
2022-08-09T10:14:31.827Z,119360.00
2022-08-09T10:16:09.165Z,126688.00
2022-08-09T10:16:56.622Z,119872.00
2022-08-09T10:17:50.631Z,114752.00
2022-08-09T10:18:29.044Z,116896.00
2022-08-09T10:19:28.044Z,111168.00
2022-08-09T10:20:35.600Z,112352.00
2022-08-09T10:21:29.007Z,113920.00
2022-08-09T10:22:29.528Z,123776.00
2022-08-09T10:23:28.183Z,118688.00
2022-08-09T10:24:35.928Z,116704.00
2022-08-09T10:25:34.912Z,125088.00
2022-08-09T10:26:28.967Z,114336.00
2022-08-09T10:27:28.592Z,111552.00
2022-08-09T10:28:28.949Z,124000.00
2022-08-09T10:30:11.698Z,122464.00
2022-08-09T10:32:40.235Z,121088.00
2022-08-09T10:33:44.846Z,119104.00
2022-08-09T10:34:33.093Z,114592.00
2022-08-09T10:35:28.884Z,122976.00
2022-08-09T10:36:27.880Z,118592.00
2022-08-09T10:37:27.931Z,128288.00
2022-08-09T10:38:54.300Z,135008.00
2022-08-09T10:39:28.991Z,123200.00
2022-08-09T10:40:35.188Z,119520.00
2022-08-09T10:41:28.833Z,123680.00
2022-08-09T10:42:27.869Z,116800.00
2022-08-09T10:43:27.813Z,119072.00
2022-08-09T10:44:28.824Z,125216.00
2022-08-09T10:45:31.755Z,125472.00
2022-08-09T10:46:28.798Z,116416.00
2022-08-09T10:48:12.524Z,122176.00
2022-08-09T10:48:30.219Z,114048.00
2022-08-09T10:49:49.862Z,130848.00
2022-08-09T10:50:31.285Z,128096.00
2022-08-09T10:51:29.707Z,131840.00
2022-08-09T10:52:28.890Z,127040.00
2022-08-09T10:53:27.728Z,121888.00
2022-08-09T10:54:27.713Z,125568.00
2022-08-09T10:55:27.749Z,117472.00
2022-08-09T10:56:27.710Z,124224.00
2022-08-09T10:57:27.698Z,120032.00
2022-08-09T10:58:27.692Z,118912.00
2022-08-09T10:59:31.039Z,120064.00
2022-08-09T11:00:27.681Z,123008.00
2022-08-09T11:03:11.242Z,118144.00
2022-08-09T11:03:11.613Z,121024.00
2022-08-09T11:03:53.181Z,119904.00
2022-08-09T11:04:31.749Z,123968.00
2022-08-09T11:05:30.076Z,122656.00
2022-08-09T11:06:27.604Z,120544.00
2022-08-09T11:07:27.731Z,123040.00
2022-08-09T11:08:30.035Z,126432.00
2022-08-09T11:09:27.587Z,122208.00
2022-08-09T11:10:29.292Z,129056.00
2022-08-09T11:11:27.580Z,122240.00
2022-08-09T11:12:29.869Z,126912.00
2022-08-09T11:13:50.272Z,125184.00
2022-08-09T11:14:29.018Z,124096.00
2022-08-09T11:15:33.965Z,122752.00
2022-08-09T11:16:33.530Z,117792.00
2022-08-09T11:17:31.062Z,121088.00
2022-08-09T11:18:27.497Z,124224.00
2022-08-09T11:20:11.312Z,121728.00
2022-08-09T11:20:28.481Z,126592.00
2022-08-09T11:21:27.472Z,125920.00
2022-08-09T11:22:28.484Z,127424.00
2022-08-09T11:23:30.004Z,121984.00
2022-08-09T11:24:27.441Z,128800.00
2022-08-09T11:25:44.694Z,129632.00
2022-08-09T11:26:28.423Z,127296.00
2022-08-09T11:28:04.399Z,124096.00
2022-08-09T11:28:33.972Z,114656.00
2022-08-09T11:30:04.599Z,126592.00
2022-08-09T11:30:32.627Z,124544.00
2022-08-09T11:31:33.728Z,118720.00
2022-08-09T11:32:28.374Z,120320.00
2022-08-09T11:33:27.360Z,125088.00
2022-08-09T11:34:27.347Z,117984.00
2022-08-09T11:35:34.863Z,116096.00
2022-08-09T11:36:30.657Z,126464.00
2022-08-09T11:37:40.668Z,125184.00
2022-08-09T11:38:32.414Z,109632.00
2022-08-09T11:39:38.166Z,117696.00
2022-08-09T11:40:28.313Z,121312.00
2022-08-09T11:41:27.299Z,113760.00
2022-08-09T11:42:28.280Z,121792.00
2022-08-09T11:43:27.276Z,119104.00
2022-08-09T11:44:28.416Z,122752.00
2022-08-09T11:45:42.396Z,126048.00
2022-08-09T11:46:33.651Z,119424.00
2022-08-09T11:47:28.242Z,118752.00
2022-08-09T11:48:28.221Z,115520.00
2022-08-09T11:49:28.331Z,112864.00
2022-08-09T11:50:56.385Z,118688.00
2022-08-09T11:53:02.356Z,116736.00
2022-08-09T11:53:15.111Z,121440.00
2022-08-09T11:53:59.524Z,111584.00
2022-08-09T11:54:33.324Z,118080.00
2022-08-09T11:55:51.744Z,119392.00
2022-08-09T11:56:42.391Z,124064.00
2022-08-09T11:57:46.868Z,124064.00
2022-08-09T11:58:32.350Z,120896.00
2022-08-09T11:59:30.327Z,117120.00
2022-08-09T12:00:28.282Z,124864.00
2022-08-09T12:02:01.361Z,119072.00
2022-08-09T12:02:37.539Z,114208.00
2022-08-09T12:03:55.859Z,115680.00
2022-08-09T12:04:28.725Z,110976.00
2022-08-09T12:05:28.130Z,109024.00
2022-08-09T12:06:32.631Z,123008.00
2022-08-09T12:07:28.069Z,123776.00
2022-08-09T12:08:28.059Z,128448.00
2022-08-09T12:09:27.050Z,130464.00
2022-08-09T12:10:39.274Z,130976.00
2022-08-09T12:11:28.033Z,128000.00
2022-08-09T12:12:29.075Z,121440.00